マニラ/ニノイ・アキノ の空港の天気 - METARとTAF

ニノイ・アキノ国際空港 ( RPLL / MNL ) - フィリピン マニラ
飛行場実況気象(Metar)
観測時間09/23 07:00 PHT (09/22 23:00 UTC)
風向・風速東 2m/s
視程10km以上
天気現象
少しの雲 雲底高度 730m
全天の8割程度の雲 雲底高度 8230m
気温29℃
湿度79%
気圧1012hPa
METARRPLL 222300Z 10003KT 060V150 9999 FEW024 BKN270 29/25 Q1012 NOSIG RMK A2988
過去の天気等 Google飛行場航空写真 Wunderground天気予報

過去48時間のMETAR

飛行場予報(TAF)
発表時間: 9/23 07:00 PHT (9/22 23:00 UTC)
予報対象時間: 23日8時 PHT ~ 24日14時 PHT
風向・風速東南東 3m/s
視程10km以上
少しの雲 雲底高度 760m
全天の4割程度の雲 雲底高度 9140m
23日8時 PHT ~ 23日14時 PHT に一時的に
少しの雲 雲底高度 760m
全天の4割程度の雲 雲底高度 3050m
全天の8割程度の雲 雲底高度 9140m
23日16時 PHT ~ 23日22時 PHT に一時的に
風向・風速南東 7m/s
天気現象弱いしゅう雨
少しの積乱雲 雲底高度 670m
全天の4割程度の雲 雲底高度 700m
全天の8割程度の雲 雲底高度 3050m
TAF RPLL 222300Z 2300/2406 11006KT 9999 FEW025 SCT300 TX34/2306Z TN27/2321Z
TEMPO 2300/2306 FEW025 SCT100 BKN300
TEMPO 2308/2314 14014KT -SHRA FEW022CB SCT023 BKN100